AirNav   Everest Fuels
 
 1098 users online  

12SC Over the Hill Airport
Elgin, South Carolina, USA

GOING TO ELGIN?


FAA INFORMATION EFFECTIVE 10 SEPTEMBER 2020

Location

FAA Identifier: 12SC
Lat/Long: 34-08-29.0000N 080-44-48.0000W
34-08.483333N 080-44.800000W
34.1413889,-80.7466667
(estimated)
Elevation: 250 ft. / 76 m (estimated)
Variation: 06W (2000)
From city: 5 miles SE of ELGIN, SC
Time zone: UTC -4 (UTC -5 during Standard Time)
Zip code: 29045

Airport Operations

Airport use: Private use. Permission required prior to landing
Activation date: 07/2002
Control tower: no
ARTCC: JACKSONVILLE CENTER
FSS: ANDERSON FLIGHT SERVICE STATION
Attendance: UNATNDD
Segmented circle: no

Airport Communications

WX AWOS-3 at CDN (12 nm NE): 119.975 (803-424-1979)
WX ASOS at CUB (16 nm SW): 118.675 (803-929-0665)

Nearby radio navigation aids

VOR radial/distance  VOR name  Freq  Var
MMTr020/13.3MC ENTIRE VORTAC113.2008W
CAEr044/22.9COLUMBIA VORTAC114.7002W
CTFr220/38.5CHESTERFIELD VOR/DME108.2003W

 
NDB name  Hdg/Dist  Freq  Var  ID
SUMTER302/21.225207WSMS ... -- ...
HARTSVILLE250/34.934107WHVS .... ...- ...
LANCASTER178/35.340007WLKR .-.. -.- .-.

Airport Services

Runway Information

Runway 9/27

Dimensions: 2000 x 100 ft. / 610 x 30 m
Surface: turf
RUNWAY 9  RUNWAY 27
Traffic pattern: leftleft

Airport Ownership and Management from official FAA records

Ownership: Privately-owned
Owner: DAVID SMITH
P.O. BOX 1204
ELGIN, SC 29045
Phone 803-438-3085
Manager: DAVID SMITH
P.O. BOX 1204
ELGIN, SC 29045
Phone 803-438-3085

Additional Remarks

FOR CD CTC SHAW APCH AT 803-895-4884, WHEN APCH CLSD CTC JACKSONVILLE ARTCC AT 904-845-1592.

Instrument Procedures

There are no published instrument procedures at 12SC.

Some nearby airports with instrument procedures:

KCDN - Woodward Field Airport (12 nm NE)
KMMT - Mc Entire Joint National Guard Base (14 nm S)
KCUB - Jim Hamilton L B Owens Airport (16 nm SW)
KSSC - Shaw Air Force Base (17 nm SE)
KFDW - Fairfield County Airport (21 nm NW)
 
Loc | Ops | Rwys | IFR | FBO | Links
Com | Nav | Svcs | Stats | Notes
Area around 12SC (Over the Hill Airport)
 
Road maps at: MapQuest Bing Google
 
Aerial photo
No photo
 
Sectional chart

 
Airport distance calculator
Flying to Over the Hill Airport? Find the distance to fly.

From to 12SC

Sunrise and sunset
Times for 27-Sep-2020
 Local
(UTC-4)
 Zulu
(UTC)
Morning civil twilight06:5110:51
Sunrise07:1611:16
Sunset19:1123:11
Evening civil twilight19:3623:36

Current date and time
Zulu (UTC)  27-Sep-2020 23:04:08
Local (UTC-4)  27-Sep-2020 19:04:08
 
METAR
KCDN 
12nm NE 
272255Z AUTO 00000KT 10SM CLR 21/21 A2996 RMK AO2
KMMT 
14nm S 
272256Z AUTO 00000KT 10SM CLR 21/21 A2995 RMK AO2 SLP144 P0000 T02090209 $
KCUB 
16nm SW 
272253Z AUTO 18004KT 9SM CLR 22/21 A2996 RMK AO2 RAE2157 SLP144 P0000 T02220211
KSSC 
17nm SE 
272256Z AUTO 21003KT 10SM CLR 22/21 A2996 RMK AO2 SLP146 T02170205 $
KFDW 
21nm NW 
272255Z AUTO 20003KT 10SM SCT120 20/19 A2996 RMK AO1
KSMS 
21nm SE 
272255Z AUTO 00000KT 5SM -DZ CLR 22/21 A2996 RMK AO2
KCAE 
22nm SW 
272256Z 16005KT 10SM FEW110 BKN150 22/21 A2994 RMK AO2 SLP137 T02170206
TAF
KMMT 
14nm S 
271755Z 2717/2821 24006KT 9999 SCT020 BKN250 QNH2998INS BECMG 2720/2721 24006KT 9999 -SHRA SCT015 OVC100 QNH2995INS BECMG 2801/2802 23006KT 9999 NSW BKN025 QNH2997INS BECMG 2806/2807 VRB06KT 3200 BR BKN005 QNH3001INS BECMG 2817/2818 21012KT 9999 NSW BKN012 BKN250 QNH2998INS BECMG 2820/2821 21009KT 8000 -SHRA BKN030 QNH3000INS TX24/2720Z TN17/2810Z
KCUB 
16nm SW 
272043Z 2721/2818 VRB03KT P6SM -SHRA SCT040 BKN120 FM280500 00000KT P6SM OVC025 FM280900 00000KT 4SM BR OVC004 FM281300 00000KT 4SM BR OVC007 FM281500 21003KT P6SM OVC015
KSSC 
17nm SE 
271500Z 2715/2821 36006KT 9999 BKN200 QNH3003INS BECMG 2720/2721 20006KT 9999 -RA SCT012 BKN040 BKN250 QNH2998INS BECMG 2801/2802 VRB06KT 9999 NSW BKN012 BKN060 QNH2996INS BECMG 2808/2809 12006KT 4800 BR BKN003 OVC030 QNH2990INS TX23/2719Z TN19/2807Z LAST NO AMDS AFT 2715 NEXT 2723
NOTAMs
Click for the latest NOTAMs
NOTAMs are issued by the DoD/FAA and will open in a separate window not controlled by AirNav.

 

 
 

Would you like to see your business listed on this page?

 If your business provides an interesting product or service to pilots, flight crews, aircraft, or users of the Over the Hill Airport, you should consider listing it here.  To start the listing process, click on the button below
 
Add a business
 

Other Pages about Over the Hill Airport

Update a link
 
Copyright © AirNav, LLC. All rights reserved. Privacy Policy  Contact